Time;durP1;ratioP1;P1;durP2;ratioP2;P2;SDS_P1;SDS_P2;PMS_P1;PMS_P2;Temp;Humidity;BMP_temperature;BMP_pressure;BME280_temperature;BME280_humidity;BME280_pressure;Samples;Min_cycle;Max_cycle;Signal;HPM_P1;HPM_P2
2021/01/05 00:00:58;;;;;;;;;10.50;10.00;;;;;13.07;51.94;97994.53;5978402;22;103224;-80
2021/01/05 00:03:25;;;;;;;;;9.00;7.75;;;;;13.05;52.94;97991.22;5977349;22;102828;-80
2021/01/05 00:05:51;;;;;;;;;13.25;10.00;;;;;13.06;52.94;97981.22;5977685;22;102523;-80
2021/01/05 00:08:18;;;;;;;;;10.50;9.00;;;;;13.05;52.30;97988.50;5975081;22;102546;-80
2021/01/05 00:10:45;;;;;;;;;13.25;9.25;;;;;13.04;52.62;97983.31;5971445;22;104342;-80
2021/01/05 00:13:11;;;;;;;;;10.50;8.00;;;;;13.03;52.68;97985.19;5973038;22;102620;-80
2021/01/05 00:15:38;;;;;;;;;10.50;8.00;;;;;13.01;52.86;97984.63;5972638;22;102642;-80
2021/01/05 00:18:05;;;;;;;;;12.00;9.50;;;;;13.01;52.04;97984.63;5976745;22;102844;-80
2021/01/05 00:20:32;;;;;;;;;8.50;7.50;;;;;13.01;51.96;97984.63;5974803;22;103935;-80
2021/01/05 00:23:13;;;;;;;;;10.25;9.50;;;;;12.99;51.90;97986.72;5974095;22;102615;-80
2021/01/05 00:25:40;;;;;;;;;9.00;7.75;;;;;12.98;52.12;97979.63;5974676;22;103739;-80
2021/01/05 00:28:07;;;;;;;;;11.00;10.00;;;;;12.96;53.02;97979.88;5970693;22;102751;-80
2021/01/05 00:30:34;;;;;;;;;9.00;9.00;;;;;12.96;52.21;97982.59;5977904;22;104202;-80
2021/01/05 00:33:01;;;;;;;;;10.00;9.50;;;;;12.96;51.99;97979.06;5975208;22;102570;-80
2021/01/05 00:35:34;;;;;;;;;9.00;8.00;;;;;12.96;52.62;97973.63;6000210;22;102564;-80
2021/01/05 00:38:05;;;;;;;;;10.25;9.75;;;;;12.95;52.46;97967.38;6021442;22;102590;-80
2021/01/05 00:40:32;;;;;;;;;10.25;8.50;;;;;12.95;51.94;97969.25;5968782;22;104093;-80
2021/01/05 00:42:59;;;;;;;;;8.50;8.00;;;;;12.95;52.65;97974.66;6008374;22;102795;-80
2021/01/05 00:45:30;;;;;;;;;9.00;7.50;;;;;12.95;51.81;97963.81;6021007;22;102523;-81
2021/01/05 00:47:57;;;;;;;;;10.75;9.00;;;;;12.93;52.49;97966.75;6005530;22;102808;-80
2021/01/05 00:50:24;;;;;;;;;8.75;8.00;;;;;12.94;52.03;97962.16;6028243;22;104792;-80
2021/01/05 00:52:51;;;;;;;;;10.75;7.75;;;;;12.92;52.76;97967.00;6004660;22;102630;-80
2021/01/05 00:55:17;;;;;;;;;10.75;9.00;;;;;12.90;52.60;97972.66;6029821;22;102503;-80
2021/01/05 00:57:44;;;;;;;;;8.50;6.75;;;;;12.91;52.51;97965.34;6024927;22;102739;-80
2021/01/05 01:00:18;;;;;;;;;10.00;7.75;;;;;12.90;52.87;97964.50;6033492;22;104577;-80
2021/01/05 01:02:48;;;;;;;;;11.00;10.00;;;;;12.89;51.84;97959.31;5995255;22;102934;-80
2021/01/05 01:05:15;;;;;;;;;8.00;7.25;;;;;12.89;52.21;97964.72;5964430;22;102904;-80
2021/01/05 01:07:41;;;;;;;;;13.00;10.25;;;;;12.88;52.66;97968.50;5997040;22;102758;-80
2021/01/05 01:10:09;;;;;;;;;7.25;7.00;;;;;12.87;52.69;97961.44;6025386;22;103933;-80
2021/01/05 01:12:36;;;;;;;;;10.25;8.00;;;;;12.86;52.66;97967.91;6032274;22;102846;-80
2021/01/05 01:15:03;;;;;;;;;12.25;8.00;;;;;12.83;52.67;97966.47;6034768;22;102789;-80
2021/01/05 01:17:30;;;;;;;;;10.00;8.75;;;;;12.82;52.23;97958.59;6032931;22;102776;-80
2021/01/05 01:19:57;;;;;;;;;10.25;9.25;;;;;12.84;51.94;97956.47;6004488;22;104000;-80
2021/01/05 01:22:25;;;;;;;;;9.00;7.25;;;;;12.84;51.87;97961.88;6038265;22;102553;-80
2021/01/05 01:24:52;;;;;;;;;10.25;9.75;;;;;12.83;52.39;97952.13;6006524;22;102748;-80
2021/01/05 01:27:20;;;;;;;;;13.00;9.00;;;;;12.83;52.19;97949.41;6028046;22;102748;-80
2021/01/05 01:29:48;;;;;;;;;7.50;7.25;;;;;12.81;52.53;97943.38;6000354;22;104067;-80
2021/01/05 01:32:16;;;;;;;;;8.00;7.25;;;;;12.83;52.17;97949.41;6033988;22;102933;-80
2021/01/05 01:34:43;;;;;;;;;7.75;7.00;;;;;12.81;51.87;97940.66;6022624;22;102818;-80
2021/01/05 01:37:14;;;;;;;;;7.75;7.00;;;;;12.80;52.97;97950.66;6032118;22;102896;-80
2021/01/05 01:39:42;;;;;;;;;7.00;7.00;;;;;12.80;52.53;97949.84;6003835;22;105204;-80
2021/01/05 01:42:10;;;;;;;;;8.00;8.00;;;;;12.77;51.96;97944.88;6030419;22;102872;-80
2021/01/05 01:44:37;;;;;;;;;9.25;8.50;;;;;12.79;52.80;97945.47;6007510;22;102542;-80
2021/01/05 01:47:11;;;;;;;;;7.00;7.00;;;;;12.78;52.50;97938.41;6034982;22;102817;-80
2021/01/05 01:49:38;;;;;;;;;7.00;6.75;;;;;12.77;52.07;97936.75;6003488;22;104021;-80
2021/01/05 01:52:07;;;;;;;;;9.00;8.00;;;;;12.76;52.88;97932.38;6034218;22;102683;-80
2021/01/05 01:54:46;;;;;;;;;8.25;7.25;;;;;12.75;52.17;97930.72;6005145;22;102954;-80
2021/01/05 01:57:36;;;;;;;;;5.75;3.25;;;;;12.76;52.22;97921.53;6003016;22;102508;-80
2021/01/05 02:00:15;;;;;;;;;8.00;6.75;;;;;12.75;52.04;97930.72;5916462;22;108794;-80
2021/01/05 02:03:34;;;;;;;;;7.75;7.00;;;;;12.75;52.59;97925.28;5971440;22;102704;-80
2021/01/05 02:06:08;;;;;;;;;7.75;6.25;;;;;12.74;52.17;97923.66;5757639;22;103000;-80
2021/01/05 02:08:58;;;;;;;;;7.50;6.50;;;;;12.72;52.97;97926.59;5995173;22;102888;-80
2021/01/05 02:11:52;;;;;;;;;8.00;7.00;;;;;12.71;52.51;97918.66;5992861;22;109415;-80
2021/01/05 02:14:28;;;;;;;;;7.00;6.00;;;;;12.70;51.93;97911.63;5927049;22;102817;-80
2021/01/05 02:17:39;;;;;;;;;7.25;7.00;;;;;12.70;52.22;97908.91;6033027;22;102815;-80
2021/01/05 02:20:28;;;;;;;;;8.50;7.75;;;;;12.69;52.49;97909.97;5937080;22;102781;-80
2021/01/05 02:23:21;;;;;;;;;8.50;8.25;;;;;12.69;52.86;97909.97;6005529;22;110141;-80
2021/01/05 02:26:00;;;;;;;;;8.50;6.25;;;;;12.68;51.96;97908.28;6005640;22;102870;-80
2021/01/05 02:28:36;;;;;;;;;13.00;8.50;;;;;12.67;52.94;97912.06;6029676;22;102540;-80
2021/01/05 02:31:19;;;;;;;;;10.00;8.00;;;;;12.65;52.57;97903.34;6009250;22;102548;-80
2021/01/05 02:34:01;;;;;;;;;6.50;6.25;;;;;12.65;52.71;97900.63;5999234;22;104015;-80
2021/01/05 15:48:48;;;;;;;;;6.00;5.00;;;;;11.78;56.47;97674.47;6138770;22;102641;-74
2021/01/05 15:51:18;;;;;;;;;4.00;4.00;;;;;11.87;57.22;97683.91;6105717;22;108356;31
2021/01/05 15:53:47;;;;;;;;;4.50;4.50;;;;;11.94;57.19;97687.34;6004125;22;102850;-75
2021/01/05 15:56:16;;;;;;;;;5.75;4.00;;;;;12.00;57.22;97679.13;5971566;22;102531;-75
2021/01/05 15:58:42;;;;;;;;;6.00;5.00;;;;;12.06;57.86;97675.50;5954238;22;102879;-75
2021/01/05 16:01:13;;;;;;;;;6.00;4.00;;;;;12.12;57.54;97671.00;5969894;22;104441;-74
2021/01/05 16:03:40;;;;;;;;;7.25;6.50;;;;;12.18;57.36;97680.09;5969902;22;102597;-74
2021/01/05 16:06:17;;;;;;;;;15.50;14.25;;;;;12.23;57.29;97674.78;5966200;22;102479;-74
2021/01/05 16:08:44;;;;;;;;;23.50;21.25;;;;;12.29;57.10;97682.78;5972295;22;102797;-75
2021/01/05 16:11:11;;;;;;;;;28.00;24.50;;;;;12.35;57.20;97687.28;5971553;22;103866;-74
2021/01/05 16:13:38;;;;;;;;;25.75;23.25;;;;;12.39;57.26;97679.50;5970623;22;102754;-75
2021/01/05 16:16:05;;;;;;;;;24.00;21.00;;;;;12.45;56.98;97684.00;5987517;23;102633;-74
2021/01/05 16:18:32;;;;;;;;;24.75;22.50;;;;;12.50;57.40;97679.53;6000899;22;102909;-75
2021/01/05 16:20:59;;;;;;;;;25.25;22.00;;;;;12.55;56.95;97686.13;5993117;22;109203;-75
2021/01/05 16:23:27;;;;;;;;;23.00;21.00;;;;;12.61;57.10;97690.63;5971483;22;102856;-75
2021/01/05 16:25:54;;;;;;;;;22.00;21.50;;;;;12.63;57.24;97688.47;5967988;22;102926;-75
2021/01/05 16:28:22;;;;;;;;;26.75;21.25;;;;;12.70;57.53;97694.63;5998490;22;102845;-75
2021/01/05 16:30:48;;;;;;;;;20.00;18.75;;;;;12.74;56.97;97690.38;5971830;22;104969;-75
2021/01/05 16:33:16;;;;;;;;;19.00;17.00;;;;;12.79;56.29;97699.44;5975589;22;102750;-75
2021/01/05 16:35:43;;;;;;;;;18.50;16.25;;;;;12.84;56.11;97701.44;5975365;22;102840;-75
2021/01/05 16:38:10;;;;;;;;;16.00;15.00;;;;;12.89;57.10;97701.53;5996936;23;102766;-75
2021/01/05 16:40:41;;;;;;;;;16.50;15.75;;;;;12.94;56.61;97705.22;5998320;22;104468;-75
2021/01/05 16:43:13;;;;;;;;;14.75;14.25;;;;;13.00;56.87;97705.31;5976141;22;102763;-75
2021/01/05 16:45:40;;;;;;;;;17.25;15.25;;;;;13.04;56.42;97692.91;5977793;22;102980;-75
2021/01/05 16:48:07;;;;;;;;;14.50;14.00;;;;;13.09;55.75;97706.59;6002238;22;102758;-75
2021/01/05 16:50:34;;;;;;;;;16.50;14.25;;;;;13.12;56.00;97698.84;5981871;22;104383;-75
2021/01/05 16:53:01;;;;;;;;;14.50;13.25;;;;;13.18;55.41;97705.19;6018712;22;102556;-74
2021/01/05 16:55:28;;;;;;;;;16.75;12.75;;;;;13.22;55.86;97701.78;6009645;22;102475;-74
2021/01/05 16:57:55;;;;;;;;;10.50;10.50;;;;;13.27;55.75;97706.47;6010125;22;102888;-74
2021/01/05 17:00:29;;;;;;;;;15.00;13.00;;;;;13.32;55.50;97707.41;6135980;22;104245;-74
2021/01/05 17:03:01;;;;;;;;;18.00;14.00;;;;;13.36;55.48;97705.88;5978068;22;102820;-74
2021/01/05 17:05:33;;;;;;;;;14.50;12.25;;;;;13.42;56.07;97708.69;6026659;22;102834;-74
2021/01/05 17:07:59;;;;;;;;;10.50;9.00;;;;;13.46;55.84;97710.69;6011519;22;102758;-75
2021/01/05 17:10:29;;;;;;;;;10.25;9.75;;;;;13.50;55.63;97716.44;6132600;22;104651;-75
2021/01/05 17:12:56;;;;;;;;;12.25;9.25;;;;;13.54;55.40;97718.44;6136249;22;102851;-75
2021/01/05 17:15:24;;;;;;;;;10.50;9.50;;;;;13.59;55.38;97720.44;6003355;22;102817;-75
2021/01/05 17:17:51;;;;;;;;;10.75;9.75;;;;;13.62;54.79;97731.63;6009772;22;102753;-74
2021/01/05 17:20:29;;;;;;;;;12.75;10.00;;;;;13.63;54.91;97729.75;5998805;22;103814;-75
2021/01/05 17:22:55;;;;;;;;;14.25;12.50;;;;;13.63;54.98;97729.75;6005548;22;102780;-75
2021/01/05 17:25:24;;;;;;;;;17.00;14.50;;;;;13.61;54.24;97729.16;6003593;22;102908;-74
2021/01/05 17:27:51;;;;;;;;;14.25;12.50;;;;;13.61;54.12;97735.41;6128932;22;102795;-75
2021/01/05 17:30:22;;;;;;;;;15.25;12.00;;;;;13.61;54.43;97734.59;6004975;22;103407;-75
2021/01/05 17:32:48;;;;;;;;;12.50;12.50;;;;;13.60;54.08;97735.69;6004761;22;102850;-74
2021/01/05 17:35:17;;;;;;;;;13.25;12.75;;;;;13.58;53.18;97737.78;6132104;22;102630;-74
2021/01/05 17:37:44;;;;;;;;;12.75;12.50;;;;;13.55;53.72;97738.28;6008729;22;102730;-75
2021/01/05 17:40:14;;;;;;;;;15.00;14.00;;;;;13.55;53.92;97732.84;6005814;22;103749;-75
2021/01/05 17:42:41;;;;;;;;;12.75;11.75;;;;;13.52;54.05;97731.44;6132666;22;102688;-75
2021/01/05 17:45:08;;;;;;;;;16.50;12.25;;;;;13.49;53.98;97741.94;6004665;22;102450;-75
2021/01/05 17:47:35;;;;;;;;;14.00;10.75;;;;;13.49;53.78;97736.53;6134322;22;102867;-74
2021/01/05 17:50:03;;;;;;;;;13.00;12.25;;;;;13.47;53.15;97746.78;6138902;22;103892;-75
2021/01/05 17:52:30;;;;;;;;;14.25;13.25;;;;;13.45;53.93;97738.06;6128324;22;102655;-75
2021/01/05 17:54:57;;;;;;;;;17.00;13.50;;;;;13.44;54.04;97742.66;6130145;22;102620;-75
2021/01/05 17:57:24;;;;;;;;;17.50;14.25;;;;;13.43;53.50;97751.88;6008156;22;104109;-75
2021/01/05 17:59:51;;;;;;;;;14.00;12.75;;;;;13.40;53.11;97749.66;6002757;22;105939;-75
2021/01/05 18:02:26;;;;;;;;;17.75;13.75;;;;;13.39;53.74;97748.81;6008104;22;102824;-75
2021/01/05 18:04:53;;;;;;;;;14.75;12.50;;;;;13.38;53.61;97760.75;6009510;22;102737;-74
2021/01/05 18:07:20;;;;;;;;;14.50;12.25;;;;;13.34;53.29;97758.75;6002878;22;102807;-75
2021/01/05 18:09:51;;;;;;;;;14.75;13.00;;;;;13.33;52.90;97766.06;6126377;22;105523;-75
2021/01/05 18:12:18;;;;;;;;;13.25;12.50;;;;;13.28;53.49;97768.66;6003480;22;102884;-74
2021/01/05 18:14:47;;;;;;;;;15.00;14.50;;;;;13.27;53.97;97769.75;6093051;22;102799;-74
2021/01/05 18:17:14;;;;;;;;;15.00;13.25;;;;;13.23;53.94;97774.00;6006026;22;102761;-75
2021/01/05 18:19:41;;;;;;;;;14.50;12.00;;;;;13.19;53.15;97770.09;5968809;22;104273;-75
2021/01/05 18:22:08;;;;;;;;;16.00;13.25;;;;;13.18;52.83;97779.31;6001677;22;102856;-75
2021/01/05 18:24:34;;;;;;;;;16.75;15.00;;;;;13.15;52.88;97779.78;6026600;22;102882;-75
2021/01/05 18:27:01;;;;;;;;;13.50;11.75;;;;;13.13;53.90;97776.50;6004771;22;102756;-75
2021/01/05 18:29:28;;;;;;;;;11.00;10.25;;;;;13.10;53.89;97776.94;6004955;22;106220;-75
2021/01/05 18:31:57;;;;;;;;;17.25;12.50;;;;;13.09;53.43;97786.13;6129768;22;105522;-75
2021/01/05 18:34:25;;;;;;;;;15.25;13.00;;;;;13.06;53.82;97783.88;5997249;22;102898;-75
2021/01/05 18:36:51;;;;;;;;;14.25;12.25;;;;;13.04;53.18;97777.88;6010124;22;102858;-75
2021/01/05 18:39:18;;;;;;;;;12.50;11.75;;;;;13.02;53.13;97790.00;6109343;22;103173;-75
2021/01/05 18:41:45;;;;;;;;;13.50;12.00;;;;;13.00;52.77;97779.41;6131691;22;105236;-75
2021/01/05 18:44:12;;;;;;;;;11.75;9.00;;;;;12.97;53.66;97805.13;5982924;22;102737;-75
2021/01/05 18:46:40;;;;;;;;;10.25;10.25;;;;;12.98;53.58;97795.94;6101194;22;102850;-75
2021/01/05 18:49:06;;;;;;;;;12.50;12.50;;;;;12.96;53.14;97794.53;5993752;22;103540;-75
2021/01/05 18:51:33;;;;;;;;;8.25;8.00;;;;;12.94;53.00;97799.34;6122356;22;102712;-75
2021/01/05 18:54:00;;;;;;;;;10.75;9.25;;;;;12.92;52.85;97796.06;6000979;22;102822;-75
2021/01/05 18:56:29;;;;;;;;;12.25;10.50;;;;;12.92;53.22;97806.91;6028294;22;102789;-75
2021/01/05 18:58:57;;;;;;;;;13.25;10.00;;;;;12.89;52.44;97819.03;6028837;22;104230;-75
2021/01/05 19:01:24;;;;;;;;;12.50;12.00;;;;;12.88;52.63;97816.56;6001242;22;102612;-75
2021/01/05 19:03:50;;;;;;;;;10.50;10.00;;;;;12.85;52.88;97811.59;6032925;22;102704;-75
2021/01/05 19:06:25;;;;;;;;;10.75;10.75;;;;;12.83;52.57;97809.13;6026512;22;102791;-75
2021/01/05 19:08:55;;;;;;;;;11.00;9.25;;;;;12.83;52.63;97805.59;6026496;22;104180;-75
2021/01/05 19:11:28;;;;;;;;;13.75;11.75;;;;;12.80;53.07;97809.59;6032039;22;102692;-74
2021/01/05 19:13:55;;;;;;;;;14.25;10.75;;;;;12.79;52.44;97801.69;6034553;22;102834;-74
2021/01/05 19:16:23;;;;;;;;;10.75;9.00;;;;;12.78;53.18;97816.34;6032595;22;102977;-74
2021/01/05 19:18:53;;;;;;;;;10.00;10.00;;;;;12.77;53.46;97817.38;6033956;22;104356;-74
2021/01/05 19:21:24;;;;;;;;;12.50;10.50;;;;;12.77;53.19;97811.97;6035657;22;102771;-74
2021/01/05 19:23:55;;;;;;;;;14.50;11.00;;;;;12.72;52.49;97800.97;6028505;22;102889;-74
2021/01/05 19:26:24;;;;;;;;;10.75;9.00;;;;;12.72;52.37;97812.66;6034941;22;102532;-74
2021/01/05 19:28:51;;;;;;;;;10.75;10.00;;;;;12.71;52.63;97816.44;6012400;22;104046;-74
2021/01/05 19:31:18;;;;;;;;;12.00;9.50;;;;;12.70;52.75;97819.41;6032549;22;102844;-74
2021/01/05 19:33:53;;;;;;;;;10.50;10.50;;;;;12.67;52.94;97817.97;6007082;22;105665;-74
2021/01/05 19:36:21;;;;;;;;;13.25;10.00;;;;;12.66;53.32;97819.00;5978850;22;102568;-75
2021/01/05 19:38:48;;;;;;;;;11.50;10.50;;;;;12.63;53.40;97822.19;5975367;22;103959;-74
2021/01/05 19:41:26;;;;;;;;;10.75;8.75;;;;;12.59;52.66;97817.47;6000118;22;105080;-74
2021/01/05 19:43:53;;;;;;;;;9.75;9.75;;;;;12.63;53.29;97824.09;5951705;22;102866;-74
2021/01/05 19:46:25;;;;;;;;;11.00;10.25;;;;;12.60;52.32;97825.38;6003846;22;102831;-73
2021/01/05 19:48:53;;;;;;;;;11.00;9.00;;;;;12.61;52.74;97826.22;6009076;22;104091;-74
2021/01/05 19:51:19;;;;;;;;;8.75;5.50;;;;;12.59;52.21;97829.16;6004506;22;102806;-74
2021/01/05 19:53:48;;;;;;;;;9.00;9.00;;;;;12.59;52.70;97817.47;6008861;22;102547;-74
2021/01/05 19:56:19;;;;;;;;;14.50;9.00;;;;;12.58;53.43;97826.66;6005836;22;102755;-74
2021/01/05 19:58:51;;;;;;;;;8.25;7.75;;;;;12.56;52.50;97828.78;6000502;22;103878;-74
2021/01/05 20:01:27;;;;;;;;;12.25;10.25;;;;;12.54;52.48;97839.88;5980066;22;102876;-74
2021/01/05 20:04:04;;;;;;;;;10.00;8.75;;;;;12.52;53.25;97836.53;5973268;22;104607;-74
2021/01/05 20:06:36;;;;;;;;;12.50;10.25;;;;;12.53;53.07;97843.63;6002853;22;102797;-74
2021/01/05 20:09:08;;;;;;;;;9.50;7.75;;;;;12.51;52.23;97846.59;6001330;22;108405;-74
2021/01/05 20:11:41;;;;;;;;;9.75;9.00;;;;;12.50;52.63;97842.22;6001770;22;102731;-74
2021/01/05 20:14:14;;;;;;;;;10.50;9.25;;;;;12.50;52.56;97850.34;5998656;22;102862;-74
2021/01/05 20:16:48;;;;;;;;;12.75;9.75;;;;;12.50;53.12;97847.66;5975626;22;105579;-74
2021/01/05 20:19:21;;;;;;;;;10.75;9.75;;;;;12.40;52.84;97847.38;6002296;22;103809;-74
2021/01/05 20:21:55;;;;;;;;;8.50;8.25;;;;;12.46;52.10;97857.31;5984104;22;103051;-74
2021/01/05 20:24:22;;;;;;;;;11.00;9.75;;;;;12.45;52.13;97852.94;5976165;22;102969;-74
2021/01/05 20:26:49;;;;;;;;;11.25;9.00;;;;;12.45;52.20;97855.66;6007997;22;102810;-74
2021/01/05 20:29:16;;;;;;;;;10.50;9.00;;;;;12.45;52.27;97861.06;6007178;22;104643;-74
2021/01/05 20:31:43;;;;;;;;;13.50;10.00;;;;;12.41;52.88;97859.88;6003685;22;102526;-74
2021/01/05 20:34:12;;;;;;;;;13.00;12.50;;;;;12.41;53.12;97859.88;6005537;22;102716;-74
2021/01/05 20:36:46;;;;;;;;;9.00;8.00;;;;;12.41;52.85;97859.88;5980005;22;102855;-75
2021/01/05 20:39:12;;;;;;;;;11.00;9.00;;;;;12.40;52.89;97866.34;6006546;22;103853;-74
2021/01/05 20:41:45;;;;;;;;;11.50;10.25;;;;;12.39;52.32;97861.97;5975370;22;102975;-74
2021/01/05 20:44:20;;;;;;;;;10.00;9.00;;;;;12.40;52.88;97865.53;6001327;22;102593;-74
2021/01/05 20:46:55;;;;;;;;;10.25;9.75;;;;;12.37;52.07;97858.69;5981463;22;102787;-74
2021/01/05 20:49:29;;;;;;;;;13.00;9.50;;;;;12.37;52.97;97868.69;5978214;22;103739;-74
2021/01/05 20:51:59;;;;;;;;;12.25;10.25;;;;;12.36;52.62;97873.28;5964221;22;103018;-74
2021/01/05 20:54:32;;;;;;;;;13.75;12.75;;;;;12.35;53.19;97866.22;5944604;22;102710;-75
2021/01/05 20:57:01;;;;;;;;;10.25;9.50;;;;;12.34;52.52;97869.97;5949585;22;102861;-75
2021/01/05 20:59:30;;;;;;;;;11.75;9.75;;;;;12.33;52.35;97873.75;5949154;22;103583;-75
2021/01/05 21:01:59;;;;;;;;;14.50;10.75;;;;;12.31;52.44;97878.56;5945032;22;102795;-75
2021/01/05 21:04:29;;;;;;;;;14.00;10.00;;;;;12.33;52.81;97881.06;5945020;22;102570;-74
2021/01/05 21:07:00;;;;;;;;;11.75;9.50;;;;;12.30;52.79;97881.50;5951283;22;102843;-75
2021/01/05 21:09:29;;;;;;;;;9.50;8.00;;;;;12.26;52.33;97883.03;5968204;22;103521;-75
2021/01/05 21:11:56;;;;;;;;;9.50;8.25;;;;;12.28;52.71;97889.88;5970188;22;105450;-75
2021/01/05 21:14:24;;;;;;;;;10.75;9.75;;;;;12.27;52.34;97896.34;5947251;22;102834;-74
2021/01/05 21:16:59;;;;;;;;;11.75;9.00;;;;;12.25;52.05;97887.59;5974158;22;102849;-74
2021/01/05 21:19:34;;;;;;;;;10.00;7.75;;;;;12.26;52.94;97894.69;5949892;22;103686;-75
2021/01/05 21:22:04;;;;;;;;;14.75;10.25;;;;;12.25;52.12;97901.16;5966255;22;102642;-75
2021/01/05 21:24:32;;;;;;;;;9.50;9.50;;;;;12.25;52.71;97900.34;5915565;22;102838;-76
2021/01/05 21:26:59;;;;;;;;;12.75;9.50;;;;;12.23;52.42;97897.88;5932774;22;102775;-75
2021/01/05 21:29:26;;;;;;;;;11.75;11.25;;;;;12.21;52.23;97897.25;5942617;22;104391;-76
2021/01/05 21:31:54;;;;;;;;;11.00;9.00;;;;;12.22;51.95;97906.22;5962011;22;102534;-75
2021/01/05 21:34:21;;;;;;;;;14.25;10.00;;;;;12.22;52.57;97909.75;5938863;22;102529;-75
2021/01/05 21:37:07;;;;;;;;;12.00;9.00;;;;;12.21;52.87;97902.69;5942878;22;102732;-76
2021/01/05 21:39:33;;;;;;;;;10.75;8.00;;;;;12.21;52.26;97905.38;5910482;22;109733;-76
2021/01/05 21:42:00;;;;;;;;;10.75;8.25;;;;;12.19;52.70;97895.84;5922109;22;103305;-76
2021/01/05 21:44:27;;;;;;;;;10.50;9.25;;;;;12.18;52.97;97900.44;5955381;22;102606;-75
2021/01/05 21:46:54;;;;;;;;;8.00;5.25;;;;;12.18;52.05;97902.31;5968019;22;102924;-76
2021/01/05 21:49:21;;;;;;;;;8.75;7.75;;;;;12.19;53.04;97899.38;5944440;22;103787;-76
2021/01/05 21:51:48;;;;;;;;;11.50;9.50;;;;;12.17;52.14;97887.94;5971002;22;102827;-76
2021/01/05 21:54:15;;;;;;;;;11.00;10.25;;;;;12.17;52.54;97895.22;6001761;22;102801;-76
2021/01/05 21:56:42;;;;;;;;;9.25;7.50;;;;;12.16;52.29;97899.03;6008122;22;102764;-76
2021/01/05 21:59:09;;;;;;;;;16.00;9.50;;;;;12.13;51.96;97892.16;5964682;22;103732;-76
2021/01/05 22:01:37;;;;;;;;;13.00;11.25;;;;;12.12;52.87;97893.22;5980125;22;103043;-76
2021/01/05 22:04:04;;;;;;;;;10.75;9.75;;;;;12.13;52.81;97894.88;6007368;22;102845;-76
2021/01/05 22:06:31;;;;;;;;;14.50;9.75;;;;;12.12;52.17;97893.22;6009704;22;102801;-76
2021/01/05 22:08:58;;;;;;;;;11.00;9.75;;;;;12.11;52.54;97896.16;5978114;22;104217;-76
2021/01/05 22:11:27;;;;;;;;;10.00;9.00;;;;;12.12;52.47;97893.22;5952172;22;102645;-76
2021/01/05 22:13:55;;;;;;;;;12.00;9.00;;;;;12.04;52.63;97880.81;5978976;22;102859;-75
2021/01/05 22:16:22;;;;;;;;;9.75;9.00;;;;;12.12;52.79;97886.97;5971963;22;102778;-76
2021/01/05 22:18:50;;;;;;;;;7.50;7.00;;;;;12.11;52.41;97891.56;5975012;22;104012;-75
2021/01/05 22:21:18;;;;;;;;;10.75;9.00;;;;;12.10;52.79;97889.91;6007594;22;102950;-76
2021/01/05 22:23:45;;;;;;;;;10.00;8.50;;;;;12.09;52.28;97888.25;6001857;22;102797;-76
2021/01/05 22:26:12;;;;;;;;;11.75;9.50;;;;;12.08;52.55;97884.72;5978824;22;102995;-76
2021/01/05 22:28:39;;;;;;;;;10.25;9.00;;;;;12.09;52.52;97882.84;6002239;22;103861;-76
2021/01/05 22:31:07;;;;;;;;;8.50;7.50;;;;;12.08;52.01;97884.72;5983888;22;102713;-76
2021/01/05 22:33:34;;;;;;;;;9.00;9.00;;;;;12.06;52.52;97902.28;6005252;22;102737;-75
2021/01/05 22:36:00;;;;;;;;;9.00;7.75;;;;;12.07;52.79;97884.94;5997824;22;102845;-76
2021/01/05 22:38:29;;;;;;;;;11.75;8.25;;;;;12.06;51.77;97883.31;5990075;22;104122;-76
2021/01/05 22:40:56;;;;;;;;;14.00;9.75;;;;;12.05;51.94;97889.75;5992419;22;105563;-76
2021/01/05 22:43:28;;;;;;;;;11.50;8.75;;;;;12.02;52.01;97885.63;5999408;22;102893;-76
2021/01/05 22:45:57;;;;;;;;;10.25;9.00;;;;;12.04;52.25;97893.53;5954970;22;102838;-76
2021/01/05 22:48:26;;;;;;;;;10.25;7.25;;;;;12.02;52.38;97890.22;6001764;22;104171;-76
2021/01/05 22:50:53;;;;;;;;;11.25;9.00;;;;;12.03;52.14;97897.28;6004245;22;102659;-76
2021/01/05 22:53:20;;;;;;;;;7.25;7.00;;;;;12.03;52.22;97889.16;5972997;22;102645;-75
2021/01/05 22:55:47;;;;;;;;;13.50;9.50;;;;;12.02;51.90;97891.03;5977388;22;105074;-76
2021/01/05 22:58:17;;;;;;;;;12.25;8.00;;;;;12.02;51.90;97887.53;5947965;22;104431;-75
2021/01/05 23:00:48;;;;;;;;;9.00;8.00;;;;;12.00;52.26;97885.03;5975380;22;102887;-76
2021/01/05 23:03:16;;;;;;;;;8.75;7.75;;;;;12.01;51.84;97875.03;5975170;22;102839;-75
2021/01/05 23:05:43;;;;;;;;;10.25;7.50;;;;;11.98;52.51;97878.16;5977536;22;102824;-76
2021/01/05 23:08:16;;;;;;;;;10.50;8.25;;;;;11.98;52.29;97881.72;5972273;22;104393;-76
2021/01/05 23:10:45;;;;;;;;;11.50;9.25;;;;;11.98;51.79;97891.72;5974983;22;102454;-76
2021/01/05 23:13:21;;;;;;;;;9.00;8.50;;;;;11.96;52.44;97883.00;5969382;22;102878;-75
2021/01/05 23:15:52;;;;;;;;;9.00;8.75;;;;;11.96;51.83;97894.66;5976703;22;102991;-76
2021/01/05 23:18:27;;;;;;;;;8.50;7.75;;;;;11.96;51.99;97902.81;5971749;22;102835;-76
2021/01/05 23:20:54;;;;;;;;;8.00;8.00;;;;;11.96;52.20;97899.25;5973479;22;102466;-76
2021/01/05 23:23:23;;;;;;;;;9.00;8.50;;;;;11.93;52.35;97899.72;5969214;22;102724;-75
2021/01/05 23:25:50;;;;;;;;;12.00;8.75;;;;;12.05;52.82;97897.91;5967281;22;102694;-76
2021/01/05 23:28:17;;;;;;;;;9.00;7.50;;;;;12.05;53.61;97903.31;5965971;22;104673;-75
2021/01/05 23:30:44;;;;;;;;;7.00;7.00;;;;;12.09;54.00;97899.09;5971436;22;102524;-75
2021/01/05 23:33:11;;;;;;;;;9.50;7.25;;;;;12.10;53.36;97902.63;5966947;22;102537;-75
2021/01/05 23:35:40;;;;;;;;;10.25;8.75;;;;;12.10;53.27;97906.19;5975538;22;102741;-75
2021/01/05 23:38:08;;;;;;;;;12.75;9.25;;;;;12.07;52.92;97906.59;5969211;22;104263;-75
2021/01/05 23:40:43;;;;;;;;;10.25;8.50;;;;;12.06;53.10;97904.97;5971301;22;102714;-75
2021/01/05 23:43:24;;;;;;;;;10.25;8.00;;;;;12.01;53.05;97912.97;5939871;22;102581;-75
2021/01/05 23:45:53;;;;;;;;;9.50;8.00;;;;;11.97;53.24;97903.63;5976837;22;102777;-75
2021/01/05 23:48:19;;;;;;;;;10.00;8.25;;;;;11.98;52.84;97914.22;5970779;22;103535;-75
2021/01/05 23:50:47;;;;;;;;;12.50;8.75;;;;;11.98;52.82;97914.22;5971895;22;102496;-75
2021/01/05 23:53:14;;;;;;;;;12.25;8.75;;;;;11.97;52.79;97911.75;6001359;22;102824;-75
2021/01/05 23:55:41;;;;;;;;;11.50;8.75;;;;;11.98;52.41;97919.63;6002557;22;102788;-75
2021/01/05 23:58:17;;;;;;;;;13.00;8.00;;;;;11.98;52.47;97919.63;6001211;22;103959;-76
